Vattmanville, Texas
Current Conditions -  °F | °C
As of 3:56 AM on Saturday 25 Oct 2014 (Local Time) from KNQI Reporting Station
Clear Clear  
Wind Chill: 62°   Ceiling: Unl
Heat Index: 62°   Visibility: 10mi
Dew Point: 60°   Wind: 3mph
Humidity: 93%   Direction: 280°W
Pressure: 30.12"   Gusts: NA
Location:  27.3193°N, 97.8839°W
Report Text: KNQI 250856Z AUTO 28003KT 10SM CLR 17/16 A3012 RMK AO2 SLP197 T01670156 58003
Loading
Personal Weather Stations






























Interactive Weather Map New forecast layout! Learn more

10-Day Weather Forecast

Advertisements
Track Severe Weather on mobile